Extreme weather reports worldwide

Rain

Station
 
Location
 
Name
 
Wind
Knots
Gust
Knots
Vis
SM
Temp/Dew
C
Baro
inHg
METAR
 
WKJ RJCW Wakkanai, JP Wakkanai Airport 28 38 3.73 4/3 29.20 RJCW 190200Z 30028G38KT 6000 -SHRA FEW009 BKN010 BKN020 04/03 Q0989
KOTG Worthington, US Worthington Municipal Airport 22 29 10 3/0 29.93 KOTG 190218Z AUTO 35022G29KT 10SM -RA BKN015 BKN055 OVC075 03/00 A2993 RMK AO2 PK WND 34033/0200 RAB08 P0000
YHZ CYHZ Halifax, CA Halifax / Stanfield International Airport 20 29 15 2/1 29.57 CYHZ 190213Z 32020G29KT 15SM -RA OVC012 02/01 A2957 RMK SC8 SLP019
YQX CYQX Gander, CA Gander International Airport 20 27 1.75 2/2 29.52 CYQX 190200Z 10020G27KT 1 3/4SM -RA BR BKN002 OVC009 02/02 A2952 RMK FG3SF4SC1 SLP003
KRGK Red Wing, US Red Wing Regional Airport 16 25 7 7/3 29.82 KRGK 190235Z AUTO 36016G25KT 7SM RA SCT017 SCT030 OVC050 07/03 A2982 RMK AO2

Station
 
Location
 
Name
 
Wind
Knots
Gust
Knots
Vis
SM
Temp/Dew
C
Baro
inHg
METAR
 
BZN KBZN Bozeman, US Gallatin Field 14 25 10 6/-1 30.09 KBZN 190156Z 31014G25KT 10SM -RA BKN044 OVC070 07/M02 A3009 RMK AO2 RAB53 SLP203 P0000 T00671017
KLUM Menomonie, US Menomonie Municipal Score Field 18 24 7 4/3 29.79 KLUM 190235Z AUTO 32018G24KT 7SM RA BKN015 BKN021 OVC050 05/04 A2979 RMK AO2 P0001 T00490039
YBX CYBX Lourdes-De-Blanc-Sablon, CA Lourdes de Blanc Sablon Airport 17 23 15 2/1 29.73 CYBX 190200Z 06017G23KT 15SM -RA BKN009 OVC026 02/01 A2973 RMK SC5SC3 SLP071
KPRS US Presidio Lely International Airport 14 22 10 16/2 30.05 KPRS 190235Z AUTO 05014G22KT 10SM -RA SCT050 BKN075 OVC095 16/03 A3005 RMK AO2 T01610026
HNA RJSI JP Hanamaki Airport 10 21 6.21 12/4 29.68 RJSI 190200Z 26010G21KT 210V300 9999 -SHRA FEW020 SCT040 BKN070 12/04 Q1005
YPS CYPD Port Hawkesbury, CA Port Hawkesbury Airport 13 18 0.38 2/2 29.41 CYPD 190200Z AUTO 31013G18KT 3/8SM -RA FG VV002 02/02 A2941 RMK SLP964
KVDF Tampa, US Tampa Executive Airport 10 18 5 22/20 29.93 KVDF 190235Z AUTO 34010G18KT 5SM +RA SCT017 BKN048 OVC070 22/20 A2993 RMK AO2
MCF KMCF Tampa, US Mac Dill Air Force Base 3 18 7 22/21 29.92 KMCF 190230Z AUTO 29003G18KT 7SM -TSRA FEW016 SCT027 BKN044 22/21 A2992 RMK AO2 RAE01RAB01E02RAB15 TSE00TSB13 PRESRR SLP135 FZRANO $
KRCX Ladysmith, US Rusk County Airport 13 17 7 7/6 29.75 KRCX 190235Z AUTO 30013G17KT 7SM -RA 07/06 A2975 RMK AO2 P0002 T00710061
ZPH KZPH Zephyrhills, US Zephyrhills Municipal Airport 12 16 3.5 21/19 29.99 KZPH 190235Z AUTO 34012G16KT 3 1/2SM +TSRA BR BKN011 BKN018 OVC026 21/20 A2999 RMK A02 LTG DSNT ALQDS P0060 T02100195
KD25 10 16 10 6/4 29.67 KD25 190235Z AUTO 29010G16KT 10SM RA SCT018 BKN034 OVC050 07/04 A2967 RMK AO2 T00650044
KPBH Phillips, US Price County Airport 8 15 7 6/6 29.69 KPBH 190235Z AUTO 24008G15KT 7SM -RA SCT016 BKN022 OVC034 06/06 A2969 RMK AO2 P0004 T00640062
KPCM Plant City, US Plant City Municipal Airport 7 15 7 23/19 29.96 KPCM 190235Z AUTO 29007G15KT 7SM RA SCT022 BKN039 OVC090 23/19 A2996 RMK AO2 P0005
KONA Winona, US Winona Municipal-Max Conrad Field 7 14 10 11/6 29.77 KONA 190235Z AUTO 33007G14KT 10SM -RA BKN045 OVC065 11/06 A2977 RMK AO2
MZZ KMZZ Marion, US Marion Municipal Airport 3 8 2 8/0 29.90 KMZZ 190235Z AUTO 20003G08KT 2SM -RA CLR 09/01 A2990 RMK AO2 VIS 1V5 T00870005
PHP KPHP Philip, US Philip Airport 20 10 2/0 30.10 KPHP 190221Z AUTO 04020KT 10SM -RA OVC024 02/M01 A3010 RMK AO2 RAB0159 P0000 T00221006
AKX UATT Aktyubinsk, KZ Aktobe Airport 17 6.21 2/-1 30.06 UATT 190230Z 07009MPS 9999 -RA OVC029 02/M01 Q1018 R12/29//50 NOSIG RMK QFE744/0992
MHC SCPQ Dalcahue, CL Mocopulli Airport 13 5.59 14/14 29.73 SCPQ 190200Z AUTO 35013KT 320V020 9000 SHRA BKN002 OVC006 14/14 Q1007
DUT PADU Unalaska, US Unalaska Airport 13 7 3/2 30.10 PADU 190210Z 34013KT 7SM -RA BKN005 OVC008 03/02 A3010 RMK AO2 RAB04 P0000
KSYN 13 10 6/3 29.83 KSYN 190235Z AUTO 33013KT 10SM -RA SCT016 BKN022 OVC060 07/04 A2983 RMK AO2 T00650037
NRB KNRB Mayport, US Naval Station Mayport (Admiral David L. Mcdonald Field) 12 10 20/19 29.91 KNRB 190211Z AUTO 19012KT 10SM -RA SCT010 BKN035 OVC100 20/19 A2991 RMK AO2 P0002 T02000194 $
UAAT Ak Bashat village, KG Ak Bashat Airport 12 6.21 16/6 30.06 UAAT 190230Z 19006MPS 9999 -SHRA SCT050CB BKN100 16/06 Q1018 NOSIG RMK QFE711/0949
YGR CYGR ÃŽles-de-la-Madeleine, CA ÃŽles-de-la-Madeleine Airport 12 5 2/2 29.48 CYGR 190200Z 01012KT 5SM -RA BR OVC003 02/02 A2948 RMK SF8 LAST STFD OBS/NXT 190900Z SLP983
GCC KGCC Gillette, US Gillette Campbell County Airport 11 9 3/2 30.05 KGCC 190240Z AUTO 03011KT 9SM -RA OVC009 03/02 A3005 RMK AO2 PK WND 03026/0202 RAB19 CIG 006V012 P0001 T00330022
SHR KSHR Sheridan, US Sheridan County Airport 11 10 3/2 30.08 KSHR 190218Z AUTO 02011KT 10SM RA BKN008 OVC015 04/02 A3008 RMK AO2 CIG 006V010 P0002 T00390022
SJO MROC San Jose, CR Juan Santamaria International Airport 10 6.21 22/20 30.02 MROC 190200Z 07010KT 9999 -RA SCT035 22/20 A3002 NOSIG
YDF CYDF Deer Lake, CA Deer Lake Airport 10 10 2/2 29.56 CYDF 190200Z 04010KT 10SM -RA OVC010 02/02 A2956 RMK SC8 SLP011
PAS LGPA Paros Island, GR Paros National Airport 9 17/16 29.91 LGPA 190220Z AUTO 16009KT //// -RA ////// 17/16 Q1013 RE//
DLG PADL Dillingham, US Dillingham Airport 9 10 5/1 30.13 PADL 190156Z 03009KT 10SM -RA OVC055 05/02 A3013 RMK AO2 RAB31 SLP205 P0000 T00500017
CAK KCAK Akron, US Akron Canton Regional Airport 9 9 8/5 29.89 KCAK 190151Z 15009KT 9SM -RA BKN040 OVC075 09/06 A2989 RMK AO2 RAB27 SLP124 P0002 T00890056
GAJ RJSC Yamagata, JP Yamagata Airport 9 6.21 12/2 29.76 RJSC 190200Z 28009KT 230V320 9999 -SHRA FEW030 SCT040 BKN050 12/02 Q1008
ZTU UBBY Zaqatala, AZ Zaqatala International Airport 8 6.21 17/12 30.09 UBBY 190200Z 09008KT 9999 -RA OVC090 17/12 Q1019 R33/////// NOSIG RMK MT OP
KEVB New Smyrna Beach, US New Smyrna Beach Municipal Airport 8 9 20/18 29.94 KEVB 190147Z COR 29008KT 9SM VCTS RA FEW005 BKN027 20/18 A2994 RMK TS VC MOV NE LTG ALQDS LAST
YNA CYNA Natashquan, CA Natashquan Airport 8 6 4/3 29.61 CYNA 190237Z AUTO 01008KT 6SM -RA BR FEW012 OVC017 04/03 A2961 RMK SLP029
LHPA Pápa, HU Pápa Air Base 8 1.55 6/6 30.00 LHPA 190215Z 34008KT 2500 -RA BR BKN005 OVC027 06/06 Q1016 NOSIG RMK YLO
YQM CYQM Moncton, CA Greater Moncton Roméo LeBlanc International Airport 8 15 2/2 29.65 CYQM 190200Z 31008KT 15SM -RA FEW008 BKN012 BKN027 OVC055 02/02 A2965 RMK SF2SF4SC1SC1 SLP043
CNS YBCS Cairns, AU Cairns International Airport 8 6.21 24/23 29.85 YBCS 190230Z AUTO 16008KT 9999 -RA BKN012 OVC019 24/23 Q1011 RERA
SNN EINN Shannon, IE Shannon Airport 8 4.35 9/7 30.09 EINN 190230Z 14008KT 7000 -RA FEW015 BKN030 09/07 Q1019 NOSIG
GRJ FAGG George, ZA George Airport 8 6.21 19/16 30.18 FAGG 190200Z AUTO 29008KT 9999 -RA BKN016/// OVC022/// 19/16 Q1022
LHPR Győr, HU Győr-Pér International Airport 7 3.04 7/7 30.00 LHPR 190215Z AUTO 36007KT 4900 -RA OVC003 07/07 Q1016
ROR PTRO Babelthuap Island, PW Babelthuap Airport 7 7 24/23 29.86 PTRO 190211Z 21007KT 7SM -SHRA BKN014CB BKN100 OVC280 24/23 A2986 RMK CB OHD AND ALQDS
OCF KOCF Ocala, US Ocala International Airport - Jim Taylor Field 7 9 20/20 29.93 KOCF 190151Z AUTO 18007KT 9SM -RA FEW070 BKN090 OVC110 20/20 A2993 RMK AO2 LTG DSNT SE AND S SLP134 P0016 T02000200 $
EKX KEKX Elizabethtown, US Addington Field 7 10 12/4 29.94 KEKX 190235Z AUTO 25007KT 10SM -RA SCT060 BKN065 OVC085 13/05 A2994 RMK AO2 T01260045
VIE LOWW Vienna, AT Vienna International Airport 6 5.59 6/5 30.03 LOWW 190220Z 31006KT 9000 -RA FEW012 BKN050 06/05 Q1017 NOSIG
IWD KIWD Ironwood, US Gogebic Iron County Airport 6 9 5/5 29.68 KIWD 190156Z AUTO VRB06KT 9SM -RA BKN007 BKN015 OVC022 06/05 A2968 RMK AO2 CIG 005V010 SLP058 P0003 T00560050